Time;durP1;ratioP1;P1;durP2;ratioP2;P2;SDS_P1;SDS_P2;PMS_P1;PMS_P2;Temp;Humidity;BMP_temperature;BMP_pressure;BME280_temperature;BME280_humidity;BME280_pressure;Samples;Min_cycle;Max_cycle;Signal;HPM_P1;HPM_P2
2022/06/12 00:00:49;;;;;;;;;;;14.90;99.90;;;;;;5039995;28;19932;-72
2022/06/12 00:03:16;;;;;;;;;;;14.90;99.90;;;;;;5040974;28;20305;-72
2022/06/12 00:05:43;;;;;;;;;;;15.00;99.90;;;;;;5047542;28;19940;-71
2022/06/12 00:08:09;;;;;;;;;;;15.00;99.90;;;;;;5049275;28;20348;-71
2022/06/12 00:10:36;;;;;;;;;;;14.90;99.90;;;;;;5040342;28;19999;-72
2022/06/12 00:13:03;;;;;;;;;;;14.90;99.90;;;;;;5034826;28;20131;-72
2022/06/12 00:15:29;;;;;;;;;;;15.10;99.90;;;;;;5043247;28;20051;-72
2022/06/12 00:17:55;;;;;;;;;;;14.90;99.90;;;;;;5042208;28;19921;-72
2022/06/12 00:20:22;;;;;;;;;;;14.80;99.90;;;;;;5037595;28;20313;-72
2022/06/12 00:22:48;;;;;;;;;;;14.80;99.90;;;;;;5037422;28;19930;-71
2022/06/12 00:25:14;;;;;;;;;;;14.90;99.90;;;;;;5043299;28;19928;-72
2022/06/12 00:27:40;;;;;;;;;;;14.80;99.90;;;;;;5042235;28;20677;-72
2022/06/12 00:30:06;;;;;;;;;;;14.70;99.90;;;;;;5035082;28;19921;-72
2022/06/12 00:32:32;;;;;;;;;;;14.70;99.90;;;;;;5045605;28;20344;-72
2022/06/12 00:34:57;;;;;;;;;;;14.60;99.90;;;;;;5048697;28;19928;-72
2022/06/12 00:37:24;;;;;;;;;;;14.70;99.90;;;;;;5045766;28;19990;-72
2022/06/12 00:39:51;;;;;;;;;;;14.60;99.90;;;;;;5067848;28;19927;-72
2022/06/12 00:42:28;;;;;;;;;;;14.60;99.90;;;;;;5044170;28;20008;-72
2022/06/12 00:44:55;;;;;;;;;;;14.50;99.90;;;;;;5032597;28;19924;-71
2022/06/12 00:47:20;;;;;;;;;;;14.50;99.90;;;;;;5041616;28;19924;-72
2022/06/12 00:49:48;;;;;;;;;;;14.40;99.90;;;;;;5039020;28;19925;-72
2022/06/12 00:52:43;;;;;;;;;;;14.30;99.90;;;;;;5042631;28;19928;-72
2022/06/12 00:55:24;;;;;;;;;;;14.30;99.90;;;;;;5034215;28;20012;-72
2022/06/12 00:57:51;;;;;;;;;;;14.30;99.90;;;;;;5043992;28;19924;-72
2022/06/12 01:00:17;;;;;;;;;;;14.30;99.90;;;;;;5044628;28;19928;-73
2022/06/12 01:02:42;;;;;;;;;;;14.20;99.90;;;;;;5041094;28;19943;-72
2022/06/12 01:07:57;;;;;;;;;;;14.20;99.90;;;;;;5069710;28;19932;-73
2022/06/12 01:10:25;;;;;;;;;;;14.30;99.90;;;;;;5046211;28;19923;-72
2022/06/12 01:12:54;;;;;;;;;;;14.10;99.90;;;;;;5044945;28;19921;-72
2022/06/12 01:15:25;;;;;;;;;;;14.10;99.90;;;;;;5039637;28;19925;-72
2022/06/12 01:17:52;;;;;;;;;;;14.10;99.90;;;;;;5032153;28;19921;-72
2022/06/12 01:20:19;;;;;;;;;;;14.10;99.90;;;;;;5044090;28;19925;-72
2022/06/12 01:23:04;;;;;;;;;;;14.10;99.90;;;;;;5036267;28;19925;-72
2022/06/12 01:25:46;;;;;;;;;;;14.10;99.90;;;;;;5074049;28;20000;-72
2022/06/12 01:28:27;;;;;;;;;;;14.10;99.90;;;;;;5044798;28;19925;-72
2022/06/12 01:31:06;;;;;;;;;;;14.00;99.90;;;;;;5077439;28;20326;-72
2022/06/12 01:33:54;;;;;;;;;;;14.00;99.90;;;;;;5050196;28;19921;-72
2022/06/12 01:36:34;;;;;;;;;;;14.00;99.90;;;;;;5046635;28;20396;-72
2022/06/12 01:39:11;;;;;;;;;;;14.00;99.90;;;;;;5043758;28;19921;-72
2022/06/12 01:41:44;;;;;;;;;;;14.00;99.90;;;;;;5048493;28;20023;-72
2022/06/12 01:44:22;;;;;;;;;;;13.90;99.90;;;;;;5042905;28;20360;-72
2022/06/12 01:46:52;;;;;;;;;;;14.00;99.90;;;;;;5075473;28;19924;-72
2022/06/12 01:49:24;;;;;;;;;;;13.90;99.90;;;;;;5046043;28;20054;-72
2022/06/12 01:51:54;;;;;;;;;;;13.80;99.90;;;;;;5044743;28;19920;-72
2022/06/12 01:54:24;;;;;;;;;;;13.80;99.90;;;;;;5046567;28;19935;-72
2022/06/12 01:56:55;;;;;;;;;;;13.70;99.90;;;;;;5043353;28;19942;-72
2022/06/12 01:59:24;;;;;;;;;;;13.80;99.90;;;;;;5073835;28;19975;-72
2022/06/12 02:01:56;;;;;;;;;;;13.70;99.90;;;;;;5045644;28;20015;-72
2022/06/12 02:04:24;;;;;;;;;;;13.70;99.90;;;;;;5043984;28;19925;-72
2022/06/12 02:06:59;;;;;;;;;;;13.70;99.90;;;;;;5075220;28;19924;-72
2022/06/12 02:09:27;;;;;;;;;;;13.70;99.90;;;;;;5050307;28;19921;-73
2022/06/12 02:14:57;;;;;;;;;;;13.60;99.90;;;;;;5073970;28;19965;-72
2022/06/12 02:17:29;;;;;;;;;;;13.60;99.90;;;;;;5044026;28;20355;-72
2022/06/12 02:19:54;;;;;;;;;;;13.60;99.90;;;;;;5048601;28;19943;-72
2022/06/12 02:22:23;;;;;;;;;;;13.60;99.90;;;;;;5041963;28;19921;-72
2022/06/12 02:24:51;;;;;;;;;;;13.60;99.90;;;;;;5047297;28;19920;-72
2022/06/12 02:27:20;;;;;;;;;;;13.60;99.90;;;;;;5050156;28;20045;-71
2022/06/12 02:29:51;;;;;;;;;;;13.60;99.90;;;;;;5044477;28;19929;-72
2022/06/12 02:32:23;;;;;;;;;;;13.60;99.90;;;;;;5031063;28;20360;-71
2022/06/12 02:34:52;;;;;;;;;;;13.60;99.90;;;;;;5050650;28;19925;-71
2022/06/12 02:37:19;;;;;;;;;;;13.60;99.90;;;;;;5038236;28;20242;-72
2022/06/12 02:39:48;;;;;;;;;;;13.60;99.90;;;;;;5067593;28;20434;-72
2022/06/12 02:42:22;;;;;;;;;;;13.60;99.90;;;;;;5070001;28;19974;-72
2022/06/12 02:44:51;;;;;;;;;;;13.60;99.90;;;;;;5047824;28;20264;-72
2022/06/12 02:47:18;;;;;;;;;;;13.70;99.90;;;;;;5042993;28;20284;-72
2022/06/12 02:49:46;;;;;;;;;;;13.60;99.90;;;;;;5041778;28;19921;-72
2022/06/12 02:52:34;;;;;;;;;;;13.80;99.90;;;;;;5045090;28;19985;-72
2022/06/12 02:55:00;;;;;;;;;;;13.70;99.90;;;;;;5049247;28;19928;-72
2022/06/12 02:57:46;;;;;;;;;;;13.70;99.90;;;;;;5048179;28;20444;-73
2022/06/12 03:00:16;;;;;;;;;;;13.70;99.90;;;;;;5040807;28;20544;-73
2022/06/12 03:02:53;;;;;;;;;;;13.70;99.90;;;;;;5038069;28;20321;-73
2022/06/12 03:05:24;;;;;;;;;;;13.70;99.90;;;;;;5050662;28;20320;-72
2022/06/12 03:07:52;;;;;;;;;;;13.80;99.90;;;;;;5045449;28;19997;-74
2022/06/12 03:10:21;;;;;;;;;;;13.80;99.90;;;;;;5081360;28;19929;-73
2022/06/12 03:12:47;;;;;;;;;;;13.80;99.90;;;;;;5029300;28;19932;-73
2022/06/12 03:15:31;;;;;;;;;;;13.80;99.90;;;;;;5047384;28;20276;-73
2022/06/12 03:17:58;;;;;;;;;;;13.80;99.90;;;;;;5047497;28;19928;-72
2022/06/12 03:20:26;;;;;;;;;;;13.80;99.90;;;;;;5038270;28;21603;-74
2022/06/12 03:23:05;;;;;;;;;;;13.80;99.90;;;;;;5043421;28;19920;-73
2022/06/12 03:25:38;;;;;;;;;;;13.80;99.90;;;;;;5082736;28;20417;-72
2022/06/12 03:28:22;;;;;;;;;;;13.80;99.90;;;;;;5047616;28;20435;-72
2022/06/12 03:30:51;;;;;;;;;;;13.80;99.90;;;;;;5050788;28;20241;-72
2022/06/12 03:33:28;;;;;;;;;;;13.80;99.90;;;;;;5073987;28;19925;-74
2022/06/12 03:36:14;;;;;;;;;;;13.80;99.90;;;;;;5045517;28;19920;-73
2022/06/12 03:38:47;;;;;;;;;;;13.80;99.90;;;;;;5076850;28;19927;-72
2022/06/12 03:41:27;;;;;;;;;;;13.70;99.90;;;;;;5044929;28;20062;-73
2022/06/12 03:43:52;;;;;;;;;;;13.70;99.90;;;;;;5047887;28;19928;-72
2022/06/12 03:46:21;;;;;;;;;;;13.70;99.90;;;;;;5073694;28;19929;-73
2022/06/12 03:49:08;;;;;;;;;;;13.70;99.90;;;;;;5043874;28;19996;-72
2022/06/12 03:51:40;;;;;;;;;;;13.70;99.90;;;;;;5036618;28;19924;-73
2022/06/12 03:54:18;;;;;;;;;;;13.70;99.90;;;;;;5061222;28;19921;-73
2022/06/12 03:59:40;;;;;;;;;;;13.70;99.90;;;;;;5042021;28;20475;-73
2022/06/12 04:02:07;;;;;;;;;;;13.70;99.90;;;;;;5047500;28;20031;-72
2022/06/12 04:04:34;;;;;;;;;;;13.60;99.90;;;;;;5048996;28;20559;-72
2022/06/12 04:07:01;;;;;;;;;;;13.70;99.90;;;;;;5046041;28;19923;-73
2022/06/12 04:09:30;;;;;;;;;;;13.70;99.90;;;;;;5047144;28;20328;-74
2022/06/12 04:11:58;;;;;;;;;;;13.70;99.90;;;;;;5048503;28;19924;-73
2022/06/12 04:14:25;;;;;;;;;;;13.70;99.90;;;;;;5044111;28;19928;-72
2022/06/12 04:16:53;;;;;;;;;;;13.70;99.90;;;;;;5046612;28;20041;-73
2022/06/12 04:19:20;;;;;;;;;;;13.70;99.90;;;;;;5047785;28;19950;-73
2022/06/12 04:21:55;;;;;;;;;;;13.70;99.90;;;;;;5045636;28;19925;-73
2022/06/12 04:24:27;;;;;;;;;;;13.70;99.90;;;;;;5035540;28;19947;-73
2022/06/12 04:26:52;;;;;;;;;;;13.80;99.90;;;;;;5038608;28;20292;-73
2022/06/12 04:29:20;;;;;;;;;;;13.80;99.90;;;;;;5048490;28;19927;-72
2022/06/12 04:31:48;;;;;;;;;;;13.80;99.90;;;;;;5045735;28;19921;-72
2022/06/12 04:34:23;;;;;;;;;;;13.80;99.90;;;;;;5068714;28;19928;-73
2022/06/12 04:36:50;;;;;;;;;;;13.80;99.90;;;;;;5062800;28;19921;-74
2022/06/12 04:39:17;;;;;;;;;;;13.90;99.90;;;;;;5039802;28;19921;-73
2022/06/12 04:41:43;;;;;;;;;;;13.90;99.90;;;;;;5042161;28;19921;-73
2022/06/12 04:44:09;;;;;;;;;;;13.90;99.90;;;;;;5048544;28;19928;-73
2022/06/12 04:46:35;;;;;;;;;;;14.00;99.90;;;;;;5047523;28;20401;-73
2022/06/12 04:49:01;;;;;;;;;;;14.10;99.90;;;;;;5044060;28;20288;-74
2022/06/12 04:51:27;;;;;;;;;;;14.10;99.90;;;;;;5042889;28;20375;-73
2022/06/12 04:53:53;;;;;;;;;;;14.10;99.90;;;;;;5046395;28;19920;-73
2022/06/12 04:56:21;;;;;;;;;;;14.10;99.90;;;;;;5043914;28;20477;-73
2022/06/12 04:58:47;;;;;;;;;;;14.20;99.90;;;;;;5048632;28;19966;-73
2022/06/12 05:01:13;;;;;;;;;;;14.20;99.90;;;;;;5043794;28;20482;-74
2022/06/12 05:03:39;;;;;;;;;;;14.20;99.90;;;;;;5048608;28;20011;-74
2022/06/12 05:06:05;;;;;;;;;;;14.20;99.90;;;;;;5047873;28;19925;-74
2022/06/12 05:08:31;;;;;;;;;;;14.20;99.90;;;;;;5048756;28;19928;-74
2022/06/12 05:10:56;;;;;;;;;;;14.20;99.90;;;;;;5062450;28;19925;-73
2022/06/12 05:13:22;;;;;;;;;;;14.10;99.90;;;;;;5038002;28;19933;-73
2022/06/12 05:15:47;;;;;;;;;;;14.20;99.90;;;;;;5047594;28;19927;-73
2022/06/12 05:18:15;;;;;;;;;;;14.20;99.90;;;;;;5046856;28;19928;-74
2022/06/12 05:20:41;;;;;;;;;;;14.20;99.90;;;;;;5041474;28;19921;-73
2022/06/12 05:23:07;;;;;;;;;;;14.20;99.90;;;;;;5078627;28;19982;-73
2022/06/12 05:25:32;;;;;;;;;;;14.20;99.90;;;;;;5042380;28;20394;-73
2022/06/12 05:27:58;;;;;;;;;;;14.20;99.90;;;;;;5047589;28;20741;-73
2022/06/12 05:30:25;;;;;;;;;;;14.30;99.90;;;;;;5046293;28;20327;-73
2022/06/12 05:32:54;;;;;;;;;;;14.40;99.90;;;;;;5075311;28;20016;-73
2022/06/12 05:35:20;;;;;;;;;;;14.40;99.90;;;;;;5047547;28;19966;-72
2022/06/12 05:37:46;;;;;;;;;;;14.50;99.90;;;;;;5046231;28;19982;-73
2022/06/12 05:40:15;;;;;;;;;;;14.50;99.90;;;;;;5046550;28;20015;-74
2022/06/12 05:42:41;;;;;;;;;;;14.60;99.90;;;;;;5045182;28;19928;-74
2022/06/12 05:45:08;;;;;;;;;;;14.60;99.90;;;;;;5045052;28;20327;-73
2022/06/12 05:47:34;;;;;;;;;;;14.70;99.90;;;;;;5047112;28;19921;-72
2022/06/12 05:50:00;;;;;;;;;;;14.70;99.90;;;;;;5041188;28;19920;-74
2022/06/12 05:52:25;;;;;;;;;;;14.90;99.90;;;;;;5046140;28;20316;-73
2022/06/12 05:54:51;;;;;;;;;;;14.90;99.90;;;;;;5045857;28;19930;-73
2022/06/12 05:57:16;;;;;;;;;;;15.00;99.90;;;;;;5046737;28;19924;-73
2022/06/12 05:59:42;;;;;;;;;;;15.10;99.90;;;;;;5047328;28;19920;-73
2022/06/12 06:02:07;;;;;;;;;;;15.20;99.90;;;;;;5036584;28;19921;-73
2022/06/12 06:04:34;;;;;;;;;;;15.20;99.90;;;;;;5046806;28;19947;-74
2022/06/12 06:06:59;;;;;;;;;;;15.30;99.90;;;;;;5046831;28;19936;-73
2022/06/12 06:09:26;;;;;;;;;;;15.40;99.90;;;;;;5048006;28;20241;-73
2022/06/12 06:11:52;;;;;;;;;;;15.40;99.90;;;;;;5044801;28;19967;-73
2022/06/12 06:14:18;;;;;;;;;;;15.50;99.90;;;;;;5069744;28;20393;-73
2022/06/12 06:16:44;;;;;;;;;;;15.60;99.90;;;;;;5044219;28;19929;-74
2022/06/12 06:19:10;;;;;;;;;;;15.60;99.90;;;;;;5047992;28;19920;-73
2022/06/12 06:21:36;;;;;;;;;;;15.70;99.90;;;;;;5036037;28;20432;-73
2022/06/12 06:24:01;;;;;;;;;;;15.80;99.90;;;;;;5049122;28;19924;-73
2022/06/12 06:26:27;;;;;;;;;;;15.80;99.90;;;;;;5045196;28;19925;-73
2022/06/12 06:28:55;;;;;;;;;;;15.90;99.90;;;;;;5046844;28;20011;-74
2022/06/12 06:31:20;;;;;;;;;;;15.90;99.90;;;;;;5047918;28;19928;-73
2022/06/12 06:33:46;;;;;;;;;;;16.00;99.90;;;;;;5041613;28;19925;-73
2022/06/12 06:36:12;;;;;;;;;;;16.10;99.90;;;;;;5043681;28;20293;-72
2022/06/12 06:38:38;;;;;;;;;;;16.10;99.90;;;;;;5048919;28;20464;-73
2022/06/12 06:41:04;;;;;;;;;;;16.20;99.90;;;;;;5041710;28;19983;-73
2022/06/12 06:43:30;;;;;;;;;;;16.30;99.90;;;;;;5046397;28;19978;-73
2022/06/12 06:46:14;;;;;;;;;;;16.30;99.90;;;;;;5040026;28;19925;-74
2022/06/12 06:48:40;;;;;;;;;;;16.40;99.90;;;;;;5042675;28;19927;-73
2022/06/12 06:51:05;;;;;;;;;;;16.50;99.90;;;;;;5066321;28;20667;-74
2022/06/12 06:53:31;;;;;;;;;;;16.50;99.90;;;;;;5039951;28;19921;-74
2022/06/12 06:55:56;;;;;;;;;;;16.50;99.90;;;;;;5075307;28;19944;-73
2022/06/12 06:58:23;;;;;;;;;;;16.60;99.90;;;;;;5041305;28;20012;-74
2022/06/12 07:00:49;;;;;;;;;;;16.70;99.90;;;;;;5074489;28;19921;-72
2022/06/12 07:03:15;;;;;;;;;;;16.70;99.90;;;;;;5047817;28;19932;-73
2022/06/12 07:05:42;;;;;;;;;;;16.80;99.90;;;;;;5047024;28;19920;-73
2022/06/12 07:08:08;;;;;;;;;;;16.90;99.90;;;;;;5038247;28;19928;-73
2022/06/12 07:10:34;;;;;;;;;;;17.00;99.90;;;;;;5039382;28;19921;-74
2022/06/12 07:12:59;;;;;;;;;;;17.00;99.90;;;;;;5043522;28;20464;-73
2022/06/12 07:15:26;;;;;;;;;;;17.00;99.90;;;;;;5038390;28;19925;-73
2022/06/12 07:17:54;;;;;;;;;;;17.10;99.90;;;;;;5041010;28;19930;-73
2022/06/12 07:20:21;;;;;;;;;;;17.10;99.90;;;;;;5042826;28;20016;-72
2022/06/12 07:22:47;;;;;;;;;;;17.20;99.90;;;;;;5043021;28;20280;-72
2022/06/12 07:25:13;;;;;;;;;;;17.20;99.90;;;;;;5032707;28;19925;-74
2022/06/12 07:27:39;;;;;;;;;;;17.30;99.90;;;;;;5045640;28;20008;-72
2022/06/12 07:30:07;;;;;;;;;;;17.30;99.90;;;;;;5036738;28;19936;-73
2022/06/12 07:32:33;;;;;;;;;;;17.40;99.90;;;;;;5039338;28;20010;-73
2022/06/12 07:34:59;;;;;;;;;;;17.50;99.90;;;;;;5038768;28;19978;-73
2022/06/12 07:37:24;;;;;;;;;;;17.50;99.90;;;;;;5034047;28;19920;-73
2022/06/12 07:39:50;;;;;;;;;;;17.60;99.90;;;;;;5044563;28;19920;-72
2022/06/12 07:42:16;;;;;;;;;;;17.50;99.90;;;;;;5070944;28;19920;-72
2022/06/12 07:44:42;;;;;;;;;;;17.70;99.90;;;;;;5045047;28;20553;-73
2022/06/12 07:47:08;;;;;;;;;;;17.70;99.90;;;;;;5038407;28;20627;-73
2022/06/12 07:49:34;;;;;;;;;;;17.80;99.90;;;;;;5041905;28;20252;-74
2022/06/12 07:52:02;;;;;;;;;;;17.90;99.90;;;;;;5039919;28;20145;-72
2022/06/12 07:54:28;;;;;;;;;;;17.90;99.90;;;;;;5045290;28;20035;-72
2022/06/12 07:56:54;;;;;;;;;;;17.90;99.90;;;;;;5033123;28;20337;-72
2022/06/12 07:59:21;;;;;;;;;;;18.00;99.90;;;;;;5036532;28;19920;-72
2022/06/12 08:01:46;;;;;;;;;;;18.00;99.90;;;;;;5035076;28;20007;-72
2022/06/12 08:04:12;;;;;;;;;;;18.00;99.90;;;;;;5041442;28;20048;-72
2022/06/12 08:06:38;;;;;;;;;;;18.10;99.90;;;;;;5033100;28;19925;-72
2022/06/12 08:09:05;;;;;;;;;;;18.10;99.90;;;;;;5043598;28;20034;-72
2022/06/12 08:11:32;;;;;;;;;;;18.10;99.90;;;;;;5039334;28;19921;-73
2022/06/12 08:13:57;;;;;;;;;;;18.20;99.90;;;;;;5039802;28;19921;-77
2022/06/12 08:16:23;;;;;;;;;;;18.20;99.90;;;;;;5040657;28;19921;-74
2022/06/12 08:18:48;;;;;;;;;;;18.30;99.90;;;;;;5035374;28;19920;-72
2022/06/12 08:21:15;;;;;;;;;;;18.30;99.90;;;;;;5070385;28;19927;-73
2022/06/12 08:23:44;;;;;;;;;;;18.30;99.90;;;;;;5068340;28;19920;-76
2022/06/12 08:26:14;;;;;;;;;;;18.40;99.90;;;;;;5064750;28;20381;-74
2022/06/12 08:28:42;;;;;;;;;;;18.40;99.90;;;;;;5041459;28;19921;-76
2022/06/12 08:31:10;;;;;;;;;;;18.50;99.90;;;;;;5036980;28;20390;-73
2022/06/12 08:33:37;;;;;;;;;;;18.60;99.90;;;;;;5038821;28;19942;-73
2022/06/12 08:36:03;;;;;;;;;;;18.80;99.90;;;;;;5043110;28;19928;-74
2022/06/12 08:38:29;;;;;;;;;;;18.90;99.90;;;;;;5065558;28;19931;-74
2022/06/12 08:41:03;;;;;;;;;;;19.00;99.90;;;;;;5042302;28;19921;-72
2022/06/12 08:43:33;;;;;;;;;;;19.10;99.90;;;;;;5043216;28;19935;-72
2022/06/12 08:46:05;;;;;;;;;;;19.20;99.90;;;;;;5040927;28;19925;-77
2022/06/12 08:48:44;;;;;;;;;;;19.30;99.90;;;;;;5043329;28;19944;-77
2022/06/12 08:51:17;;;;;;;;;;;19.30;99.90;;;;;;5039677;28;20077;-76
2022/06/12 08:53:43;;;;;;;;;;;19.30;99.90;;;;;;5067317;28;20023;-73
2022/06/12 08:56:18;;;;;;;;;;;19.30;99.90;;;;;;5067207;28;19988;-73
2022/06/12 08:58:49;;;;;;;;;;;19.30;99.90;;;;;;5038464;28;20284;-72
2022/06/12 09:01:15;;;;;;;;;;;19.30;99.90;;;;;;5034010;28;20373;-72
2022/06/12 09:03:44;;;;;;;;;;;19.30;99.90;;;;;;5040891;28;19967;-72
2022/06/12 09:06:16;;;;;;;;;;;19.30;99.90;;;;;;5042551;28;19921;-74
2022/06/12 09:08:54;;;;;;;;;;;19.30;99.90;;;;;;5031230;28;19920;-72
2022/06/12 09:11:26;;;;;;;;;;;19.30;99.90;;;;;;5035890;28;19920;-73
2022/06/12 09:13:54;;;;;;;;;;;19.40;99.90;;;;;;5033161;28;19994;-73
2022/06/12 09:16:31;;;;;;;;;;;19.30;99.90;;;;;;5065118;28;19928;-72
2022/06/12 09:19:08;;;;;;;;;;;19.40;99.90;;;;;;5045288;28;19966;-73
2022/06/12 09:21:38;;;;;;;;;;;19.40;99.90;;;;;;5039997;28;20039;-72
2022/06/12 09:24:18;;;;;;;;;;;19.30;99.90;;;;;;5043507;28;20448;-73
2022/06/12 09:26:57;;;;;;;;;;;19.40;99.90;;;;;;5040077;28;20292;-73
2022/06/12 09:29:41;;;;;;;;;;;19.40;99.90;;;;;;5043149;28;19920;-75
2022/06/12 09:32:14;;;;;;;;;;;19.40;99.90;;;;;;5066054;28;19925;-74
2022/06/12 09:34:58;;;;;;;;;;;19.40;99.90;;;;;;5043740;28;19921;-72
2022/06/12 09:40:08;;;;;;;;;;;19.40;99.90;;;;;;5042614;28;19924;-82
2022/06/12 09:42:54;;;;;;;;;;;19.40;99.90;;;;;;5069114;28;20638;-80
2022/06/12 09:45:26;;;;;;;;;;;19.40;99.90;;;;;;5036280;28;19920;-81
2022/06/12 09:48:04;;;;;;;;;;;19.40;99.90;;;;;;5037889;28;19940;-80
2022/06/12 09:50:44;;;;;;;;;;;19.40;99.90;;;;;;5044748;28;19921;-80
2022/06/12 09:53:36;;;;;;;;;;;19.50;99.90;;;;;;5039124;28;20371;-81
2022/06/12 09:56:12;;;;;;;;;;;19.70;99.90;;;;;;5035077;28;19978;-80
2022/06/12 09:58:43;;;;;;;;;;;19.80;99.90;;;;;;5043598;28;20534;-78
2022/06/12 10:01:29;;;;;;;;;;;20.00;99.90;;;;;;5042978;28;19924;-79
2022/06/12 10:03:59;;;;;;;;;;;20.00;99.90;;;;;;5042427;28;19921;-80
2022/06/12 10:06:32;;;;;;;;;;;20.00;99.90;;;;;;5069104;28;19956;-79
2022/06/12 10:09:04;;;;;;;;;;;19.90;99.90;;;;;;5076812;28;19974;-80
2022/06/12 10:11:32;;;;;;;;;;;19.90;99.90;;;;;;5044266;28;19936;-80
2022/06/12 10:14:09;;;;;;;;;;;19.90;99.90;;;;;;5033890;28;19999;-79
2022/06/12 10:16:54;;;;;;;;;;;20.00;99.90;;;;;;5043233;28;19925;-82
2022/06/12 10:19:20;;;;;;;;;;;20.10;99.90;;;;;;5046694;28;19920;-80
2022/06/12 10:21:48;;;;;;;;;;;20.30;99.90;;;;;;5038542;28;20143;-78
2022/06/12 10:24:14;;;;;;;;;;;20.30;99.90;;;;;;5037772;28;19921;-77
2022/06/12 10:26:39;;;;;;;;;;;20.40;99.90;;;;;;5042197;28;19925;-77
2022/06/12 10:29:05;;;;;;;;;;;20.40;99.90;;;;;;5036752;28;20003;-75
2022/06/12 10:31:34;;;;;;;;;;;20.50;99.90;;;;;;5038899;28;19921;-78
2022/06/12 10:34:23;;;;;;;;;;;20.50;99.90;;;;;;5046944;28;19920;-76
2022/06/12 10:36:48;;;;;;;;;;;20.60;99.90;;;;;;5045134;28;20391;-77
2022/06/12 10:39:16;;;;;;;;;;;20.60;99.90;;;;;;5043254;28;19932;-78
2022/06/12 10:41:51;;;;;;;;;;;20.70;99.90;;;;;;5041338;28;19998;-74
2022/06/12 10:44:31;;;;;;;;;;;20.70;99.90;;;;;;5040035;28;19936;-72
2022/06/12 10:47:07;;;;;;;;;;;20.80;99.90;;;;;;5036611;28;19972;-72
2022/06/12 10:49:32;;;;;;;;;;;20.80;99.70;;;;;;5041216;28;20027;-72
2022/06/12 10:52:05;;;;;;;;;;;20.90;99.10;;;;;;5069247;28;20087;-72
2022/06/12 10:54:31;;;;;;;;;;;20.80;99.70;;;;;;5040187;28;20272;-72
2022/06/12 10:57:05;;;;;;;;;;;20.70;98.40;;;;;;5036458;28;19925;-75
2022/06/12 10:59:36;;;;;;;;;;;20.60;99.10;;;;;;5040736;28;20111;-76
2022/06/12 11:02:17;;;;;;;;;;;20.60;99.70;;;;;;5042853;28;19921;-76
2022/06/12 11:04:54;;;;;;;;;;;20.60;99.90;;;;;;5046375;28;19920;-76
2022/06/12 11:07:39;;;;;;;;;;;20.80;98.80;;;;;;5042015;28;19921;-75
2022/06/12 11:10:04;;;;;;;;;;;20.90;99.90;;;;;;5038102;28;19921;-74
2022/06/12 11:12:41;;;;;;;;;;;21.10;99.70;;;;;;5047570;28;20338;-79
2022/06/12 11:15:39;;;;;;;;;;;21.20;99.90;;;;;;5033898;28;19939;-80
2022/06/12 11:18:14;;;;;;;;;;;21.30;99.90;;;;;;5011215;28;19940;-78
2022/06/12 11:20:47;;;;;;;;;;;21.50;99.90;;;;;;5069424;28;20363;-78
2022/06/12 11:23:17;;;;;;;;;;;21.50;99.80;;;;;;5039637;28;19921;-77
2022/06/12 11:25:45;;;;;;;;;;;21.50;99.90;;;;;;5064102;28;19921;-79
2022/06/12 11:28:11;;;;;;;;;;;21.50;99.00;;;;;;5075547;28;19980;-78
2022/06/12 11:30:46;;;;;;;;;;;21.60;99.20;;;;;;5078953;28;20033;-80
2022/06/12 11:33:12;;;;;;;;;;;21.60;99.60;;;;;;5039891;28;19928;-79
2022/06/12 11:35:43;;;;;;;;;;;21.60;98.20;;;;;;5046053;28;20276;-83
2022/06/12 11:38:09;;;;;;;;;;;21.60;98.10;;;;;;5042382;28;20746;-79
2022/06/12 11:40:40;;;;;;;;;;;21.70;98.60;;;;;;5045269;28;19942;-79
2022/06/12 11:43:19;;;;;;;;;;;21.70;98.60;;;;;;5048312;28;19978;-79
2022/06/12 11:45:53;;;;;;;;;;;21.80;98.60;;;;;;5074344;28;19960;-79
2022/06/12 11:48:19;;;;;;;;;;;21.70;97.30;;;;;;5047985;28;19920;-79
2022/06/12 11:51:08;;;;;;;;;;;21.60;97.00;;;;;;5069579;28;19928;-77
2022/06/12 11:53:49;;;;;;;;;;;21.50;99.90;;;;;;5040083;28;19925;-78
2022/06/12 11:56:38;;;;;;;;;;;21.30;97.50;;;;;;5033213;28;19921;-76
2022/06/12 11:59:13;;;;;;;;;;;21.20;98.30;;;;;;5039677;28;19959;-80
2022/06/12 12:01:57;;;;;;;;;;;21.10;97.40;;;;;;5032758;28;19928;-78
2022/06/12 12:04:44;;;;;;;;;;;21.00;97.80;;;;;;5064107;28;19975;-80
2022/06/12 12:07:34;;;;;;;;;;;21.00;97.50;;;;;;5071305;28;19921;-80
2022/06/12 12:10:15;;;;;;;;;;;21.00;98.50;;;;;;5081502;28;20260;-79
2022/06/12 12:12:42;;;;;;;;;;;21.00;97.90;;;;;;5047879;28;19925;-78
2022/06/12 12:15:19;;;;;;;;;;;21.10;97.50;;;;;;5048018;28;19929;-78
2022/06/12 12:17:46;;;;;;;;;;;21.10;98.10;;;;;;5037356;28;19928;-77
2022/06/12 12:20:14;;;;;;;;;;;21.10;98.50;;;;;;5044535;28;19999;-81
2022/06/12 12:22:48;;;;;;;;;;;21.20;98.20;;;;;;5038358;28;19921;-77
2022/06/12 12:25:13;;;;;;;;;;;21.30;97.10;;;;;;5045372;28;19998;-77
2022/06/12 12:27:40;;;;;;;;;;;21.30;96.50;;;;;;5042904;28;19941;-80
2022/06/12 12:30:26;;;;;;;;;;;21.30;95.80;;;;;;5077141;28;20400;-85
2022/06/12 12:32:53;;;;;;;;;;;21.30;94.60;;;;;;5036956;28;19951;-77
2022/06/12 12:43:33;;;;;;;;;;;21.60;95.50;;;;;;5040912;28;19928;-73
2022/06/12 12:46:00;;;;;;;;;;;21.70;96.00;;;;;;5037226;28;20995;-75
2022/06/12 12:48:37;;;;;;;;;;;21.60;96.30;;;;;;5038557;28;19972;-73
2022/06/12 12:51:02;;;;;;;;;;;21.70;97.70;;;;;;5037951;28;20493;-75
2022/06/12 12:53:32;;;;;;;;;;;21.80;97.90;;;;;;5038619;28;19920;-75
2022/06/12 12:56:07;;;;;;;;;;;21.80;98.00;;;;;;5067388;28;19968;-74
2022/06/12 12:58:34;;;;;;;;;;;21.80;95.60;;;;;;5038752;28;19982;-78
2022/06/12 13:01:02;;;;;;;;;;;21.70;97.90;;;;;;5035965;28;19924;-77
2022/06/12 13:03:27;;;;;;;;;;;21.60;95.80;;;;;;5040436;28;19931;-78
2022/06/12 13:05:58;;;;;;;;;;;21.60;96.40;;;;;;5072478;28;19921;-76
2022/06/12 13:08:27;;;;;;;;;;;21.70;96.50;;;;;;5043483;28;19921;-77
2022/06/12 13:11:04;;;;;;;;;;;21.60;97.00;;;;;;5043521;28;20370;-76
2022/06/12 13:13:50;;;;;;;;;;;21.60;96.40;;;;;;5039592;28;19932;-76
2022/06/12 13:16:16;;;;;;;;;;;21.60;96.70;;;;;;5039469;28;19929;-78
2022/06/12 13:19:00;;;;;;;;;;;21.60;96.60;;;;;;5032838;28;19928;-78
2022/06/12 13:21:46;;;;;;;;;;;21.60;96.80;;;;;;5043405;28;19921;-76
2022/06/12 13:24:31;;;;;;;;;;;21.70;97.00;;;;;;5045590;28;20368;-83
2022/06/12 13:26:57;;;;;;;;;;;21.70;96.60;;;;;;5039713;28;19929;-75
2022/06/12 13:29:24;;;;;;;;;;;21.80;95.40;;;;;;5047167;28;19924;-75
2022/06/12 13:32:00;;;;;;;;;;;21.80;95.30;;;;;;5043198;28;20024;-78
2022/06/12 13:34:26;;;;;;;;;;;21.80;95.90;;;;;;5040049;28;19925;-76
2022/06/12 13:36:52;;;;;;;;;;;21.80;95.50;;;;;;5042498;28;19920;-80
2022/06/12 13:39:36;;;;;;;;;;;21.80;96.00;;;;;;5045589;28;19927;-78
2022/06/12 13:42:05;;;;;;;;;;;21.90;96.50;;;;;;5036091;28;19933;-74
2022/06/12 13:44:30;;;;;;;;;;;21.90;95.80;;;;;;5045551;28;20265;-74
2022/06/12 13:46:57;;;;;;;;;;;21.90;95.30;;;;;;5037750;28;19932;-72
2022/06/12 13:49:30;;;;;;;;;;;21.80;96.60;;;;;;5037731;28;19947;-77
2022/06/12 13:52:01;;;;;;;;;;;21.60;94.90;;;;;;5035151;28;20073;-82
2022/06/12 13:54:27;;;;;;;;;;;21.50;94.90;;;;;;5040848;28;19983;-77
2022/06/12 13:56:56;;;;;;;;;;;21.30;94.90;;;;;;5030585;28;20343;-72
2022/06/12 13:59:23;;;;;;;;;;;21.30;95.70;;;;;;5064576;28;19974;-71
2022/06/12 14:01:49;;;;;;;;;;;21.40;96.90;;;;;;5041082;28;20234;-72
2022/06/12 14:04:29;;;;;;;;;;;21.40;97.30;;;;;;5043601;28;19935;-72
2022/06/12 14:06:56;;;;;;;;;;;21.30;97.80;;;;;;5042518;28;19920;-72
2022/06/12 14:09:29;;;;;;;;;;;21.40;97.70;;;;;;5041261;28;19929;-72
2022/06/12 14:11:55;;;;;;;;;;;21.40;97.40;;;;;;5033013;28;20123;-72
2022/06/12 14:14:33;;;;;;;;;;;21.50;97.90;;;;;;5043671;28;19925;-71
2022/06/12 14:16:59;;;;;;;;;;;21.60;97.90;;;;;;5035509;28;19960;-72
2022/06/12 14:19:26;;;;;;;;;;;21.70;97.80;;;;;;5042202;28;19983;-73
2022/06/12 14:22:22;;;;;;;;;;;21.80;97.30;;;;;;5030411;28;19921;-72
2022/06/12 14:24:58;;;;;;;;;;;22.00;97.50;;;;;;5035159;28;20221;-73
2022/06/12 14:27:32;;;;;;;;;;;22.00;97.80;;;;;;5040960;28;19929;-72
2022/06/12 14:29:57;;;;;;;;;;;22.10;97.40;;;;;;5037211;28;19967;-77
2022/06/12 14:32:24;;;;;;;;;;;22.20;97.60;;;;;;5038060;28;19925;-73
2022/06/12 14:35:05;;;;;;;;;;;22.30;98.00;;;;;;5040683;28;19920;-74
2022/06/12 14:37:30;;;;;;;;;;;22.30;96.80;;;;;;5032435;28;20399;-73
2022/06/12 14:39:57;;;;;;;;;;;22.50;97.50;;;;;;5044814;28;19972;-73
2022/06/12 14:42:23;;;;;;;;;;;22.40;97.90;;;;;;5035576;28;19982;-75
2022/06/12 14:44:48;;;;;;;;;;;22.30;96.70;;;;;;5047230;28;19924;-74
2022/06/12 14:47:14;;;;;;;;;;;22.30;97.10;;;;;;5042067;28;20006;-75
2022/06/12 14:49:40;;;;;;;;;;;22.20;96.80;;;;;;5039022;28;21115;-74
2022/06/12 14:52:07;;;;;;;;;;;22.20;97.60;;;;;;5037624;28;20617;-74
2022/06/12 14:54:33;;;;;;;;;;;22.30;98.00;;;;;;5067557;28;19924;-76